createdAt,value
2018-07-01T00:08:52.867Z,18.40
2018-07-01T00:13:52.082Z,18.40
2018-07-01T00:16:21.903Z,18.50
2018-07-01T00:18:51.687Z,18.30
2018-07-01T00:21:21.751Z,18.30
2018-07-01T00:26:20.909Z,18.00
2018-07-01T00:28:50.703Z,18.00
2018-07-01T00:31:20.517Z,18.00
2018-07-01T00:33:50.329Z,18.00
2018-07-01T00:36:20.153Z,18.00
2018-07-01T00:43:48.663Z,18.00
2018-07-01T00:46:18.671Z,17.90
2018-07-01T00:48:48.472Z,17.90
2018-07-01T00:53:47.559Z,17.60
2018-07-01T00:56:17.791Z,17.50
2018-07-01T00:58:47.621Z,17.60
2018-07-01T01:08:46.330Z,17.40
2018-07-01T01:16:15.273Z,17.40
2018-07-01T01:28:43.447Z,17.10
2018-07-01T01:38:42.342Z,17.00
2018-07-01T01:50:19.593Z,16.80
2018-07-01T01:55:46.174Z,16.70
2018-07-01T02:06:08.321Z,16.50
2018-07-01T02:08:41.805Z,16.60
2018-07-01T02:11:11.592Z,16.60
2018-07-01T02:16:20.789Z,16.60
2018-07-01T02:18:50.586Z,16.60
2018-07-01T02:21:21.068Z,16.50
2018-07-01T02:31:21.504Z,16.50
2018-07-01T02:41:19.292Z,16.20
2018-07-01T02:53:46.357Z,16.20
2018-07-01T02:56:16.085Z,16.10
2018-07-01T03:01:15.425Z,16.20
2018-07-01T03:08:43.938Z,16.10
2018-07-01T03:23:40.520Z,16.00
2018-07-01T03:26:11.366Z,16.00
2018-07-01T03:28:41.304Z,15.90
2018-07-01T03:33:40.408Z,15.90
2018-07-01T03:38:39.495Z,15.80
2018-07-01T03:56:06.255Z,15.80
2018-07-01T04:01:05.847Z,15.80
2018-07-01T04:06:05.409Z,15.60
2018-07-01T04:08:35.242Z,15.80
2018-07-01T04:16:03.926Z,15.80
2018-07-01T04:18:33.686Z,15.90
2018-07-01T04:21:03.714Z,16.00
2018-07-01T04:26:02.858Z,16.10
2018-07-01T04:31:02.028Z,16.10
2018-07-01T04:36:01.077Z,16.30
2018-07-01T04:55:56.184Z,17.10
2018-07-01T05:05:54.548Z,17.30
2018-07-01T05:08:24.346Z,17.50
2018-07-01T05:10:54.240Z,17.70
2018-07-01T05:15:53.331Z,17.80
2018-07-01T05:18:23.098Z,17.90
2018-07-01T05:28:20.884Z,18.30
2018-07-01T05:30:50.765Z,18.30
2018-07-01T05:45:47.990Z,18.70
2018-07-01T06:00:44.534Z,19.30
2018-07-01T06:05:43.745Z,19.40
2018-07-01T06:15:44.058Z,19.30
2018-07-01T06:18:13.966Z,19.50
2018-07-01T06:30:41.472Z,20.00
2018-07-01T06:35:42.817Z,19.90
2018-07-01T06:45:41.902Z,20.50
2018-07-01T06:58:11.424Z,21.00
2018-07-01T07:00:41.414Z,21.00
2018-07-01T07:13:09.954Z,21.30
2018-07-01T07:15:39.788Z,21.20
2018-07-01T07:18:09.819Z,21.30
2018-07-01T07:20:39.678Z,21.50
2018-07-01T07:23:09.456Z,21.50
2018-07-01T07:48:08.151Z,22.10
2018-07-01T07:53:07.663Z,22.00
2018-07-01T08:05:35.783Z,22.60
2018-07-01T08:15:34.001Z,22.60
2018-07-01T08:18:03.928Z,22.70
2018-07-01T08:23:04.341Z,23.00
2018-07-01T08:38:03.612Z,23.30
2018-07-01T08:43:03.377Z,23.40
2018-07-01T08:48:02.906Z,23.70
2018-07-01T08:53:02.109Z,23.70
2018-07-01T09:00:31.258Z,23.50
2018-07-01T09:03:01.262Z,23.60
2018-07-01T09:05:31.725Z,23.60
2018-07-01T09:08:02.502Z,23.50
2018-07-01T09:13:01.809Z,23.70
2018-07-01T09:18:01.147Z,24.10
2018-07-01T09:20:31.008Z,24.00
2018-07-01T09:33:00.112Z,24.30
2018-07-01T09:35:29.962Z,24.40
2018-07-01T09:37:59.957Z,24.60
2018-07-01T09:42:59.448Z,24.70
2018-07-01T09:45:29.459Z,24.60
2018-07-01T09:50:30.096Z,24.80
2018-07-01T09:52:59.996Z,24.80
2018-07-01T09:57:59.316Z,24.60
2018-07-01T10:02:58.664Z,24.70
2018-07-01T10:07:58.646Z,24.80
2018-07-01T10:12:58.210Z,25.00
2018-07-01T10:17:57.738Z,25.00
2018-07-01T10:27:55.976Z,25.40
2018-07-01T10:32:56.399Z,25.90
2018-07-01T10:35:26.299Z,26.00
2018-07-01T10:40:25.580Z,26.20
2018-07-01T10:42:55.573Z,26.50
2018-07-01T10:45:25.608Z,26.50
2018-07-01T10:47:56.871Z,26.30
2018-07-01T10:52:56.384Z,26.40
2018-07-01T10:57:55.618Z,26.50
2018-07-01T11:02:56.203Z,26.50
2018-07-01T11:05:26.152Z,26.80
2018-07-01T11:07:56.130Z,27.00
2018-07-01T11:12:55.807Z,27.20
2018-07-01T11:15:25.590Z,27.10
2018-07-01T11:17:55.426Z,27.40
2018-07-01T11:25:24.102Z,28.20
2018-07-01T11:27:53.897Z,28.60
2018-07-01T11:35:22.282Z,29.00
2018-07-01T11:40:21.330Z,29.20
2018-07-01T11:52:48.321Z,30.10
2018-07-01T12:02:46.098Z,30.80
2018-07-01T12:07:45.154Z,30.70
2018-07-01T12:12:44.236Z,30.90
2018-07-01T12:32:40.547Z,32.40
2018-07-01T12:35:11.320Z,32.60
2018-07-01T12:45:09.397Z,33.10
2018-07-01T12:50:08.605Z,33.40
2018-07-01T13:02:36.043Z,33.90
2018-07-01T13:05:05.938Z,34.10
2018-07-01T13:07:35.807Z,33.80
2018-07-01T13:12:35.066Z,33.50
2018-07-01T13:15:05.444Z,33.40
2018-07-01T13:17:35.960Z,34.00
2018-07-01T13:25:04.907Z,35.20
2018-07-01T13:27:34.718Z,35.20
2018-07-01T13:30:05.194Z,35.40
2018-07-01T13:35:04.361Z,34.50
2018-07-01T13:42:32.837Z,34.70
2018-07-01T13:45:02.670Z,35.10
2018-07-01T13:52:32.736Z,35.50
2018-07-01T14:00:01.443Z,35.50
2018-07-01T14:05:00.571Z,36.10
2018-07-01T14:09:59.639Z,36.30
2018-07-01T14:24:55.962Z,35.80
2018-07-01T14:27:25.772Z,36.10
2018-07-01T14:32:24.913Z,35.70
2018-07-01T14:34:54.682Z,36.00
2018-07-01T14:37:24.647Z,35.90
2018-07-01T14:44:53.054Z,33.50
2018-07-01T15:02:19.017Z,27.90
2018-07-01T15:04:48.983Z,27.80
2018-07-01T15:07:18.833Z,27.60
2018-07-01T15:09:48.650Z,27.40
2018-07-01T15:14:47.722Z,27.20
2018-07-01T15:19:46.797Z,27.20
2018-07-01T15:22:16.606Z,27.10
2018-07-01T15:24:46.409Z,27.10
2018-07-01T15:37:13.448Z,26.80
2018-07-01T15:42:12.611Z,26.90
2018-07-01T15:44:42.406Z,26.90
2018-07-01T15:49:41.486Z,27.10
2018-07-01T16:27:13.095Z,26.40
2018-07-01T16:32:12.258Z,26.30
2018-07-01T16:42:09.899Z,26.30
2018-07-01T16:44:39.722Z,26.20
2018-07-01T16:49:38.831Z,26.10
2018-07-01T16:52:08.953Z,26.20
2018-07-01T17:14:34.957Z,26.10
2018-07-01T17:27:01.986Z,25.90
2018-07-01T17:44:33.100Z,25.80
2018-07-01T17:49:32.316Z,25.70
2018-07-01T17:54:31.415Z,25.60
2018-07-01T17:59:30.539Z,25.50
2018-07-01T18:09:28.344Z,25.80
2018-07-01T18:11:58.525Z,25.70
2018-07-01T18:14:28.307Z,25.60
2018-07-01T18:16:58.117Z,25.40
2018-07-01T18:34:24.042Z,24.70
2018-07-01T18:49:20.685Z,24.00
2018-07-01T18:59:18.495Z,23.70
2018-07-01T19:11:46.141Z,23.10
2018-07-01T19:14:16.016Z,23.20
2018-07-01T19:29:12.617Z,22.90
2018-07-01T19:31:44.955Z,22.80
2018-07-01T19:34:15.270Z,22.80
2018-07-01T19:36:45.180Z,22.60
2018-07-01T19:44:13.671Z,22.50
2018-07-01T19:49:12.793Z,22.40
2018-07-01T19:51:42.713Z,22.20
2018-07-01T19:54:12.668Z,22.20
2018-07-01T19:56:42.506Z,22.00
2018-07-01T20:01:41.602Z,21.90
2018-07-01T20:06:40.725Z,21.70
2018-07-01T20:16:39.646Z,21.70
2018-07-01T20:19:09.504Z,21.60
2018-07-01T20:21:39.291Z,21.40
2018-07-01T20:29:07.975Z,21.00
2018-07-01T20:39:09.331Z,20.80
2018-07-01T20:41:39.369Z,20.80
2018-07-01T21:01:34.603Z,20.40
2018-07-01T21:11:32.519Z,20.30
2018-07-01T21:21:30.341Z,20.10
2018-07-01T21:48:52.605Z,19.60
2018-07-01T21:56:20.727Z,19.50
2018-07-01T22:03:48.937Z,19.40
2018-07-01T22:06:18.694Z,19.20
2018-07-01T22:11:49.075Z,19.20
2018-07-01T22:14:23.969Z,19.20
2018-07-01T22:21:53.087Z,19.10
2018-07-01T22:24:24.823Z,19.20
2018-07-01T22:31:52.951Z,19.00
2018-07-01T22:36:52.595Z,18.90
2018-07-01T22:39:24.167Z,18.90
2018-07-01T22:49:23.056Z,18.70
2018-07-01T22:51:52.702Z,18.60
2018-07-01T22:54:22.383Z,18.60
2018-07-01T22:59:21.291Z,18.50
2018-07-01T23:06:56.717Z,18.40
2018-07-01T23:09:26.359Z,18.40
2018-07-01T23:21:53.061Z,18.30
2018-07-01T23:24:22.763Z,18.20
2018-07-01T23:34:23.498Z,18.10
2018-07-01T23:44:21.251Z,18.00
2018-07-01T23:59:17.249Z,17.80
